Carmanville, Canada
Current Conditions -  °F | °C
As of 6:00 AM on Monday 29 Dec 2014 (Local Time) from CYQX Reporting Station
Snow Showers Snow Showers  
Wind Chill: 27°   Ceiling: 3300
Heat Index: 27°   Visibility: 12mi
Dew Point: 27°   Wind: 2mph
Humidity: 100%   Direction: 330°NNW
Pressure: 29.48"   Gusts: NA
Location:  49.37°N, 54.27°W
Report Text: CYQX 290900Z 33002KT 12SM -SHSN FEW002 SCT008 OVC033 M03/M03 A2948 RMK SF1SF3SC4 SLP992
Loading
Personal Weather Stations






























Interactive Weather Map New forecast layout! Learn more

10-Day Weather Forecast

Advertisements
Track Severe Weather on mobile